Solon Mills, Illinois
Current Conditions -  °F | °C
As of 12:55 PM on Sunday 23 Nov 2014 (Local Time) from KBUU Reporting Station
Moderate Rain Moderate Rain  
Wind Chill: 46°   Ceiling: 7500
Heat Index: 48°   Visibility: 7mi
Dew Point: 47°   Wind: 6mph
Humidity: 94%   Direction: 160°SSE
Pressure: 29.54"   Gusts: NA
Location:  42.44°N, 88.27°W
Report Text: KBUU 231855Z AUTO 16005KT 7SM RA SCT038 SCT046 BKN075 09/08 A2954 RMK AO2 T00900081
Loading
Personal Weather Stations






























Interactive Weather Map New forecast layout! Learn more

10-Day Weather Forecast

Advertisements
Track Severe Weather on mobile